sensor_id;sensor_type;location;lat;lon;timestamp;temperature;humidity
13606;DHT22;6874;52.084;5.090;2024-01-15T00:01:45;2.20;99.90
13606;DHT22;6874;52.084;5.090;2024-01-15T00:04:11;2.20;99.90
13606;DHT22;6874;52.084;5.090;2024-01-15T00:06:36;2.20;99.90
13606;DHT22;6874;52.084;5.090;2024-01-15T00:09:02;2.20;99.90
13606;DHT22;6874;52.084;5.090;2024-01-15T00:11:28;2.20;99.90
13606;DHT22;6874;52.084;5.090;2024-01-15T00:13:53;2.10;99.90
13606;DHT22;6874;52.084;5.090;2024-01-15T00:16:19;2.10;99.90
13606;DHT22;6874;52.084;5.090;2024-01-15T00:18:44;2.10;99.90
13606;DHT22;6874;52.084;5.090;2024-01-15T00:21:10;2.10;99.90
13606;DHT22;6874;52.084;5.090;2024-01-15T00:23:35;2.10;99.90
13606;DHT22;6874;52.084;5.090;2024-01-15T00:26:01;2.00;99.90
13606;DHT22;6874;52.084;5.090;2024-01-15T00:28:27;2.00;99.90
13606;DHT22;6874;52.084;5.090;2024-01-15T00:30:52;2.00;99.90
13606;DHT22;6874;52.084;5.090;2024-01-15T00:33:18;2.00;99.90
13606;DHT22;6874;52.084;5.090;2024-01-15T00:35:43;2.00;99.90
13606;DHT22;6874;52.084;5.090;2024-01-15T00:38:09;1.90;99.90
13606;DHT22;6874;52.084;5.090;2024-01-15T00:40:34;1.90;99.90
13606;DHT22;6874;52.084;5.090;2024-01-15T00:43:00;1.90;99.90
13606;DHT22;6874;52.084;5.090;2024-01-15T00:45:25;1.90;99.90
13606;DHT22;6874;52.084;5.090;2024-01-15T00:47:51;1.90;99.90
13606;DHT22;6874;52.084;5.090;2024-01-15T00:50:16;1.90;99.90
13606;DHT22;6874;52.084;5.090;2024-01-15T00:52:42;1.90;99.90
13606;DHT22;6874;52.084;5.090;2024-01-15T00:55:08;1.90;99.90
13606;DHT22;6874;52.084;5.090;2024-01-15T00:57:34;1.80;99.90
13606;DHT22;6874;52.084;5.090;2024-01-15T00:59:59;1.80;99.90
13606;DHT22;6874;52.084;5.090;2024-01-15T01:02:25;1.80;99.90
13606;DHT22;6874;52.084;5.090;2024-01-15T01:04:51;1.80;99.90
13606;DHT22;6874;52.084;5.090;2024-01-15T01:07:17;1.80;99.90
13606;DHT22;6874;52.084;5.090;2024-01-15T01:09:42;1.80;99.90
13606;DHT22;6874;52.084;5.090;2024-01-15T01:12:09;1.80;99.90
13606;DHT22;6874;52.084;5.090;2024-01-15T01:14:35;1.80;99.90
13606;DHT22;6874;52.084;5.090;2024-01-15T01:17:00;1.80;99.90
13606;DHT22;6874;52.084;5.090;2024-01-15T01:19:26;1.80;99.90
13606;DHT22;6874;52.084;5.090;2024-01-15T01:21:51;1.80;99.90
13606;DHT22;6874;52.084;5.090;2024-01-15T01:24:17;1.80;99.90
13606;DHT22;6874;52.084;5.090;2024-01-15T01:26:43;1.80;99.90
13606;DHT22;6874;52.084;5.090;2024-01-15T01:29:08;1.70;99.90
13606;DHT22;6874;52.084;5.090;2024-01-15T01:31:34;1.80;99.90
13606;DHT22;6874;52.084;5.090;2024-01-15T01:33:59;1.70;99.90
13606;DHT22;6874;52.084;5.090;2024-01-15T01:36:25;1.70;99.90
13606;DHT22;6874;52.084;5.090;2024-01-15T01:38:50;1.70;99.90
13606;DHT22;6874;52.084;5.090;2024-01-15T01:41:16;1.70;99.90
13606;DHT22;6874;52.084;5.090;2024-01-15T01:43:43;1.70;99.90
13606;DHT22;6874;52.084;5.090;2024-01-15T01:46:09;1.70;99.90
13606;DHT22;6874;52.084;5.090;2024-01-15T01:48:35;1.70;99.90
13606;DHT22;6874;52.084;5.090;2024-01-15T01:51:02;1.70;99.90
13606;DHT22;6874;52.084;5.090;2024-01-15T01:53:29;1.70;99.90
13606;DHT22;6874;52.084;5.090;2024-01-15T01:55:57;1.70;99.90
13606;DHT22;6874;52.084;5.090;2024-01-15T01:58:23;1.70;99.90
13606;DHT22;6874;52.084;5.090;2024-01-15T02:00:49;1.70;99.90
13606;DHT22;6874;52.084;5.090;2024-01-15T02:03:15;1.70;99.90
13606;DHT22;6874;52.084;5.090;2024-01-15T02:05:43;1.70;99.90
13606;DHT22;6874;52.084;5.090;2024-01-15T02:08:09;1.70;99.90
13606;DHT22;6874;52.084;5.090;2024-01-15T02:10:35;1.70;99.90
13606;DHT22;6874;52.084;5.090;2024-01-15T02:13:01;1.70;99.90
13606;DHT22;6874;52.084;5.090;2024-01-15T02:15:26;1.60;99.90
13606;DHT22;6874;52.084;5.090;2024-01-15T02:18:05;1.70;99.90
13606;DHT22;6874;52.084;5.090;2024-01-15T02:20:33;1.70;99.90
13606;DHT22;6874;52.084;5.090;2024-01-15T02:23:12;1.70;99.90
13606;DHT22;6874;52.084;5.090;2024-01-15T02:25:40;1.70;99.90
13606;DHT22;6874;52.084;5.090;2024-01-15T02:28:07;1.70;99.90
13606;DHT22;6874;52.084;5.090;2024-01-15T02:30:37;1.60;99.90
13606;DHT22;6874;52.084;5.090;2024-01-15T02:33:04;1.60;99.90
13606;DHT22;6874;52.084;5.090;2024-01-15T02:35:30;1.60;99.90
13606;DHT22;6874;52.084;5.090;2024-01-15T02:37:55;1.60;99.90
13606;DHT22;6874;52.084;5.090;2024-01-15T02:40:21;1.60;99.90
13606;DHT22;6874;52.084;5.090;2024-01-15T02:42:46;1.60;99.90
13606;DHT22;6874;52.084;5.090;2024-01-15T02:45:12;1.60;99.90
13606;DHT22;6874;52.084;5.090;2024-01-15T02:47:37;1.60;99.90
13606;DHT22;6874;52.084;5.090;2024-01-15T02:50:03;1.60;99.90
13606;DHT22;6874;52.084;5.090;2024-01-15T02:52:29;1.60;99.90
13606;DHT22;6874;52.084;5.090;2024-01-15T02:54:54;1.60;99.90
13606;DHT22;6874;52.084;5.090;2024-01-15T02:57:20;1.70;99.90
13606;DHT22;6874;52.084;5.090;2024-01-15T02:59:45;1.70;99.90
13606;DHT22;6874;52.084;5.090;2024-01-15T03:02:11;1.70;99.90
13606;DHT22;6874;52.084;5.090;2024-01-15T03:04:36;1.70;99.90
13606;DHT22;6874;52.084;5.090;2024-01-15T03:07:02;1.70;99.90
13606;DHT22;6874;52.084;5.090;2024-01-15T03:09:28;1.70;99.90
13606;DHT22;6874;52.084;5.090;2024-01-15T03:11:53;1.70;99.90
13606;DHT22;6874;52.084;5.090;2024-01-15T03:14:19;1.70;99.90
13606;DHT22;6874;52.084;5.090;2024-01-15T03:16:45;1.70;99.90
13606;DHT22;6874;52.084;5.090;2024-01-15T03:19:11;1.70;99.90
13606;DHT22;6874;52.084;5.090;2024-01-15T03:21:36;1.70;99.90
13606;DHT22;6874;52.084;5.090;2024-01-15T03:24:02;1.60;99.90
13606;DHT22;6874;52.084;5.090;2024-01-15T03:26:28;1.60;99.90
13606;DHT22;6874;52.084;5.090;2024-01-15T03:28:53;1.60;99.90
13606;DHT22;6874;52.084;5.090;2024-01-15T03:31:19;1.60;99.90
13606;DHT22;6874;52.084;5.090;2024-01-15T03:33:45;1.60;99.90
13606;DHT22;6874;52.084;5.090;2024-01-15T03:36:10;1.60;99.90
13606;DHT22;6874;52.084;5.090;2024-01-15T03:38:40;1.60;99.90
13606;DHT22;6874;52.084;5.090;2024-01-15T03:41:06;1.60;99.90
13606;DHT22;6874;52.084;5.090;2024-01-15T03:43:32;1.60;99.90
13606;DHT22;6874;52.084;5.090;2024-01-15T03:45:57;1.60;99.90
13606;DHT22;6874;52.084;5.090;2024-01-15T03:48:23;1.60;99.90
13606;DHT22;6874;52.084;5.090;2024-01-15T03:50:48;1.60;99.90
13606;DHT22;6874;52.084;5.090;2024-01-15T03:53:14;1.60;99.90
13606;DHT22;6874;52.084;5.090;2024-01-15T03:55:40;1.60;99.90
13606;DHT22;6874;52.084;5.090;2024-01-15T03:58:05;1.60;99.90
13606;DHT22;6874;52.084;5.090;2024-01-15T04:00:31;1.60;99.90
13606;DHT22;6874;52.084;5.090;2024-01-15T04:02:56;1.60;99.90
13606;DHT22;6874;52.084;5.090;2024-01-15T04:05:22;1.60;99.90
13606;DHT22;6874;52.084;5.090;2024-01-15T04:07:47;1.60;99.90
13606;DHT22;6874;52.084;5.090;2024-01-15T04:10:13;1.60;99.90
13606;DHT22;6874;52.084;5.090;2024-01-15T04:12:38;1.60;99.90
13606;DHT22;6874;52.084;5.090;2024-01-15T04:15:04;1.60;99.90
13606;DHT22;6874;52.084;5.090;2024-01-15T04:17:30;1.60;99.90
13606;DHT22;6874;52.084;5.090;2024-01-15T04:19:55;1.60;99.90
13606;DHT22;6874;52.084;5.090;2024-01-15T04:22:21;1.60;99.90
13606;DHT22;6874;52.084;5.090;2024-01-15T04:24:46;1.60;99.90
13606;DHT22;6874;52.084;5.090;2024-01-15T04:27:12;1.60;99.90
13606;DHT22;6874;52.084;5.090;2024-01-15T04:29:38;1.60;99.90
13606;DHT22;6874;52.084;5.090;2024-01-15T04:32:05;1.60;99.90
13606;DHT22;6874;52.084;5.090;2024-01-15T04:34:30;1.60;99.90
13606;DHT22;6874;52.084;5.090;2024-01-15T04:36:56;1.50;99.90
13606;DHT22;6874;52.084;5.090;2024-01-15T04:39:21;1.50;99.90
13606;DHT22;6874;52.084;5.090;2024-01-15T04:41:47;1.50;99.90
13606;DHT22;6874;52.084;5.090;2024-01-15T04:44:13;1.50;99.90
13606;DHT22;6874;52.084;5.090;2024-01-15T04:46:38;1.50;99.90
13606;DHT22;6874;52.084;5.090;2024-01-15T04:49:04;1.50;99.90
13606;DHT22;6874;52.084;5.090;2024-01-15T04:51:29;1.50;99.90
13606;DHT22;6874;52.084;5.090;2024-01-15T04:53:55;1.50;99.90
13606;DHT22;6874;52.084;5.090;2024-01-15T04:56:20;1.50;99.90
13606;DHT22;6874;52.084;5.090;2024-01-15T04:58:46;1.50;99.90
13606;DHT22;6874;52.084;5.090;2024-01-15T05:01:12;1.50;99.90
13606;DHT22;6874;52.084;5.090;2024-01-15T05:03:37;1.50;99.90
13606;DHT22;6874;52.084;5.090;2024-01-15T05:06:03;1.50;99.90
13606;DHT22;6874;52.084;5.090;2024-01-15T05:08:29;1.50;99.90
13606;DHT22;6874;52.084;5.090;2024-01-15T05:10:54;1.50;99.90
13606;DHT22;6874;52.084;5.090;2024-01-15T05:13:20;1.60;99.90
13606;DHT22;6874;52.084;5.090;2024-01-15T05:15:45;1.50;99.90
13606;DHT22;6874;52.084;5.090;2024-01-15T05:18:11;1.60;99.90
13606;DHT22;6874;52.084;5.090;2024-01-15T05:20:36;1.50;99.90
13606;DHT22;6874;52.084;5.090;2024-01-15T05:23:02;1.50;99.90
13606;DHT22;6874;52.084;5.090;2024-01-15T05:25:27;1.60;99.90
13606;DHT22;6874;52.084;5.090;2024-01-15T05:27:53;1.60;99.90
13606;DHT22;6874;52.084;5.090;2024-01-15T05:30:19;1.60;99.90
13606;DHT22;6874;52.084;5.090;2024-01-15T05:32:44;1.60;99.90
13606;DHT22;6874;52.084;5.090;2024-01-15T05:35:10;1.50;99.90
13606;DHT22;6874;52.084;5.090;2024-01-15T05:37:35;1.50;99.90
13606;DHT22;6874;52.084;5.090;2024-01-15T05:40:01;1.50;99.90
13606;DHT22;6874;52.084;5.090;2024-01-15T05:42:27;1.50;99.90
13606;DHT22;6874;52.084;5.090;2024-01-15T05:44:55;1.50;99.90
13606;DHT22;6874;52.084;5.090;2024-01-15T05:47:20;1.50;99.90
13606;DHT22;6874;52.084;5.090;2024-01-15T05:49:46;1.50;99.90
13606;DHT22;6874;52.084;5.090;2024-01-15T05:52:11;1.50;99.90
13606;DHT22;6874;52.084;5.090;2024-01-15T05:54:37;1.50;99.90
13606;DHT22;6874;52.084;5.090;2024-01-15T05:57:03;1.50;99.90
13606;DHT22;6874;52.084;5.090;2024-01-15T05:59:28;1.50;99.90
13606;DHT22;6874;52.084;5.090;2024-01-15T06:01:57;1.50;99.90
13606;DHT22;6874;52.084;5.090;2024-01-15T06:04:22;1.50;99.90
13606;DHT22;6874;52.084;5.090;2024-01-15T06:06:48;1.40;99.90
13606;DHT22;6874;52.084;5.090;2024-01-15T06:09:13;1.50;99.90
13606;DHT22;6874;52.084;5.090;2024-01-15T06:11:39;1.50;99.90
13606;DHT22;6874;52.084;5.090;2024-01-15T06:14:05;1.50;99.90
13606;DHT22;6874;52.084;5.090;2024-01-15T06:16:30;1.50;99.90
13606;DHT22;6874;52.084;5.090;2024-01-15T06:18:56;1.50;99.90
13606;DHT22;6874;52.084;5.090;2024-01-15T06:21:21;1.50;99.90
13606;DHT22;6874;52.084;5.090;2024-01-15T06:23:47;1.50;99.90
13606;DHT22;6874;52.084;5.090;2024-01-15T06:26:12;1.50;99.90
13606;DHT22;6874;52.084;5.090;2024-01-15T06:28:38;1.50;99.90
13606;DHT22;6874;52.084;5.090;2024-01-15T06:31:04;1.50;99.90
13606;DHT22;6874;52.084;5.090;2024-01-15T06:33:31;1.50;99.90
13606;DHT22;6874;52.084;5.090;2024-01-15T06:35:56;1.50;99.90
13606;DHT22;6874;52.084;5.090;2024-01-15T06:38:22;1.50;99.90
13606;DHT22;6874;52.084;5.090;2024-01-15T06:40:48;1.50;99.90
13606;DHT22;6874;52.084;5.090;2024-01-15T06:43:14;1.60;99.90
13606;DHT22;6874;52.084;5.090;2024-01-15T06:45:41;1.60;99.90
13606;DHT22;6874;52.084;5.090;2024-01-15T06:48:06;1.60;99.90
13606;DHT22;6874;52.084;5.090;2024-01-15T06:50:33;1.60;99.90
13606;DHT22;6874;52.084;5.090;2024-01-15T06:52:58;1.60;99.90
13606;DHT22;6874;52.084;5.090;2024-01-15T06:55:24;1.60;99.90
13606;DHT22;6874;52.084;5.090;2024-01-15T06:57:51;1.60;99.90
13606;DHT22;6874;52.084;5.090;2024-01-15T07:00:17;1.60;99.90
13606;DHT22;6874;52.084;5.090;2024-01-15T07:02:45;1.60;99.90
13606;DHT22;6874;52.084;5.090;2024-01-15T07:05:10;1.50;99.90
13606;DHT22;6874;52.084;5.090;2024-01-15T07:07:36;1.50;99.90
13606;DHT22;6874;52.084;5.090;2024-01-15T07:10:02;1.60;99.90
13606;DHT22;6874;52.084;5.090;2024-01-15T07:12:29;1.50;99.90
13606;DHT22;6874;52.084;5.090;2024-01-15T07:14:56;1.60;99.90
13606;DHT22;6874;52.084;5.090;2024-01-15T07:17:21;1.60;99.90
13606;DHT22;6874;52.084;5.090;2024-01-15T07:19:47;1.60;99.90
13606;DHT22;6874;52.084;5.090;2024-01-15T07:22:12;1.50;99.90
13606;DHT22;6874;52.084;5.090;2024-01-15T07:24:38;1.50;99.90
13606;DHT22;6874;52.084;5.090;2024-01-15T07:27:04;1.50;99.90
13606;DHT22;6874;52.084;5.090;2024-01-15T07:29:30;1.60;99.90
13606;DHT22;6874;52.084;5.090;2024-01-15T07:31:58;1.60;99.90
13606;DHT22;6874;52.084;5.090;2024-01-15T07:34:23;1.60;99.90
13606;DHT22;6874;52.084;5.090;2024-01-15T07:36:49;1.60;99.90
13606;DHT22;6874;52.084;5.090;2024-01-15T07:39:15;1.50;99.90
13606;DHT22;6874;52.084;5.090;2024-01-15T07:41:41;1.50;99.90
13606;DHT22;6874;52.084;5.090;2024-01-15T07:44:06;1.60;99.90
13606;DHT22;6874;52.084;5.090;2024-01-15T07:46:32;1.60;99.90
13606;DHT22;6874;52.084;5.090;2024-01-15T07:48:57;1.60;99.90
13606;DHT22;6874;52.084;5.090;2024-01-15T07:51:23;1.60;99.90
13606;DHT22;6874;52.084;5.090;2024-01-15T07:53:50;1.60;99.90
13606;DHT22;6874;52.084;5.090;2024-01-15T07:56:16;1.60;99.90
13606;DHT22;6874;52.084;5.090;2024-01-15T07:58:42;1.60;99.90
13606;DHT22;6874;52.084;5.090;2024-01-15T08:01:07;1.60;99.90
13606;DHT22;6874;52.084;5.090;2024-01-15T08:03:33;1.60;99.90
13606;DHT22;6874;52.084;5.090;2024-01-15T08:05:59;1.60;99.90
13606;DHT22;6874;52.084;5.090;2024-01-15T08:08:25;1.50;99.90
13606;DHT22;6874;52.084;5.090;2024-01-15T08:10:53;1.60;99.90
13606;DHT22;6874;52.084;5.090;2024-01-15T08:13:19;1.60;99.90
13606;DHT22;6874;52.084;5.090;2024-01-15T08:15:45;1.60;99.90
13606;DHT22;6874;52.084;5.090;2024-01-15T08:18:11;1.50;99.90
13606;DHT22;6874;52.084;5.090;2024-01-15T08:20:37;1.60;99.90
13606;DHT22;6874;52.084;5.090;2024-01-15T08:23:03;1.60;99.90
13606;DHT22;6874;52.084;5.090;2024-01-15T08:25:29;1.60;99.90
13606;DHT22;6874;52.084;5.090;2024-01-15T08:27:58;1.60;99.90
13606;DHT22;6874;52.084;5.090;2024-01-15T08:30:24;1.50;99.90
13606;DHT22;6874;52.084;5.090;2024-01-15T08:32:53;1.50;99.90
13606;DHT22;6874;52.084;5.090;2024-01-15T08:35:19;1.50;99.90
13606;DHT22;6874;52.084;5.090;2024-01-15T08:37:54;1.50;99.90
13606;DHT22;6874;52.084;5.090;2024-01-15T08:40:20;1.50;99.90
13606;DHT22;6874;52.084;5.090;2024-01-15T08:42:45;1.50;99.90
13606;DHT22;6874;52.084;5.090;2024-01-15T08:45:11;1.50;99.90
13606;DHT22;6874;52.084;5.090;2024-01-15T08:47:37;1.50;99.90
13606;DHT22;6874;52.084;5.090;2024-01-15T08:50:03;1.50;99.90
13606;DHT22;6874;52.084;5.090;2024-01-15T08:52:29;1.50;99.90
13606;DHT22;6874;52.084;5.090;2024-01-15T08:54:56;1.50;99.90
13606;DHT22;6874;52.084;5.090;2024-01-15T08:57:22;1.50;99.90
13606;DHT22;6874;52.084;5.090;2024-01-15T08:59:47;1.50;99.90
13606;DHT22;6874;52.084;5.090;2024-01-15T09:02:13;1.50;99.90
13606;DHT22;6874;52.084;5.090;2024-01-15T09:04:39;1.50;99.90
13606;DHT22;6874;52.084;5.090;2024-01-15T09:07:04;1.50;99.90
13606;DHT22;6874;52.084;5.090;2024-01-15T09:09:30;1.50;99.90
13606;DHT22;6874;52.084;5.090;2024-01-15T09:11:56;1.50;99.90
13606;DHT22;6874;52.084;5.090;2024-01-15T09:14:21;1.50;99.90
13606;DHT22;6874;52.084;5.090;2024-01-15T09:16:49;1.50;99.90
13606;DHT22;6874;52.084;5.090;2024-01-15T09:19:15;1.50;99.90
13606;DHT22;6874;52.084;5.090;2024-01-15T09:21:40;1.50;99.90
13606;DHT22;6874;52.084;5.090;2024-01-15T09:24:06;1.50;99.90
13606;DHT22;6874;52.084;5.090;2024-01-15T09:26:31;1.50;99.90
13606;DHT22;6874;52.084;5.090;2024-01-15T09:28:57;1.50;99.90
13606;DHT22;6874;52.084;5.090;2024-01-15T09:31:23;1.60;99.90
13606;DHT22;6874;52.084;5.090;2024-01-15T09:33:49;1.60;99.90
13606;DHT22;6874;52.084;5.090;2024-01-15T09:36:18;1.60;99.90
13606;DHT22;6874;52.084;5.090;2024-01-15T09:38:43;1.60;99.90
13606;DHT22;6874;52.084;5.090;2024-01-15T09:41:09;1.60;99.90
13606;DHT22;6874;52.084;5.090;2024-01-15T09:43:36;1.60;99.90
13606;DHT22;6874;52.084;5.090;2024-01-15T09:46:03;1.60;99.90
13606;DHT22;6874;52.084;5.090;2024-01-15T09:48:29;1.60;99.90
13606;DHT22;6874;52.084;5.090;2024-01-15T09:50:56;1.60;99.90
13606;DHT22;6874;52.084;5.090;2024-01-15T09:53:23;1.60;99.90
13606;DHT22;6874;52.084;5.090;2024-01-15T09:55:50;1.60;99.90
13606;DHT22;6874;52.084;5.090;2024-01-15T09:58:16;1.60;99.90
13606;DHT22;6874;52.084;5.090;2024-01-15T10:00:42;1.60;99.90
13606;DHT22;6874;52.084;5.090;2024-01-15T10:03:09;1.60;99.90
13606;DHT22;6874;52.084;5.090;2024-01-15T10:05:37;1.60;99.90
13606;DHT22;6874;52.084;5.090;2024-01-15T10:08:04;1.60;99.90
13606;DHT22;6874;52.084;5.090;2024-01-15T10:10:32;1.60;99.90
13606;DHT22;6874;52.084;5.090;2024-01-15T10:12:58;1.60;99.90
13606;DHT22;6874;52.084;5.090;2024-01-15T10:15:28;1.60;99.90
13606;DHT22;6874;52.084;5.090;2024-01-15T10:17:53;1.60;99.90
13606;DHT22;6874;52.084;5.090;2024-01-15T10:20:20;1.60;99.90
13606;DHT22;6874;52.084;5.090;2024-01-15T10:22:47;1.60;99.90
13606;DHT22;6874;52.084;5.090;2024-01-15T10:25:14;1.70;99.90
13606;DHT22;6874;52.084;5.090;2024-01-15T10:27:43;1.70;99.90
13606;DHT22;6874;52.084;5.090;2024-01-15T10:30:10;1.70;99.90
13606;DHT22;6874;52.084;5.090;2024-01-15T10:32:36;1.70;99.90
13606;DHT22;6874;52.084;5.090;2024-01-15T10:35:02;1.80;99.90
13606;DHT22;6874;52.084;5.090;2024-01-15T10:37:33;1.80;99.90
13606;DHT22;6874;52.084;5.090;2024-01-15T10:40:04;1.80;99.90
13606;DHT22;6874;52.084;5.090;2024-01-15T10:42:32;1.90;99.90
13606;DHT22;6874;52.084;5.090;2024-01-15T10:44:58;1.90;99.90
13606;DHT22;6874;52.084;5.090;2024-01-15T10:47:23;1.90;99.90
13606;DHT22;6874;52.084;5.090;2024-01-15T10:49:49;1.90;99.90
13606;DHT22;6874;52.084;5.090;2024-01-15T10:52:15;2.00;99.90
13606;DHT22;6874;52.084;5.090;2024-01-15T10:54:41;2.00;99.90
13606;DHT22;6874;52.084;5.090;2024-01-15T10:57:09;2.00;99.90
13606;DHT22;6874;52.084;5.090;2024-01-15T10:59:36;2.00;99.90
13606;DHT22;6874;52.084;5.090;2024-01-15T11:02:02;2.00;99.90
13606;DHT22;6874;52.084;5.090;2024-01-15T11:04:28;2.10;99.90
13606;DHT22;6874;52.084;5.090;2024-01-15T11:06:54;2.00;99.90
13606;DHT22;6874;52.084;5.090;2024-01-15T11:09:21;2.00;99.90
13606;DHT22;6874;52.084;5.090;2024-01-15T11:11:47;2.10;99.90
13606;DHT22;6874;52.084;5.090;2024-01-15T11:14:44;2.10;99.90
13606;DHT22;6874;52.084;5.090;2024-01-15T11:17:11;2.10;99.90
13606;DHT22;6874;52.084;5.090;2024-01-15T11:19:38;2.10;99.90
13606;DHT22;6874;52.084;5.090;2024-01-15T11:22:07;2.10;99.90
13606;DHT22;6874;52.084;5.090;2024-01-15T11:24:40;2.10;99.90
13606;DHT22;6874;52.084;5.090;2024-01-15T11:27:07;2.10;99.90
13606;DHT22;6874;52.084;5.090;2024-01-15T11:29:36;2.10;99.90
13606;DHT22;6874;52.084;5.090;2024-01-15T11:32:03;2.20;99.90
13606;DHT22;6874;52.084;5.090;2024-01-15T11:34:58;2.10;99.90
13606;DHT22;6874;52.084;5.090;2024-01-15T11:37:26;2.10;99.90
13606;DHT22;6874;52.084;5.090;2024-01-15T11:40:00;2.10;99.90
13606;DHT22;6874;52.084;5.090;2024-01-15T11:42:26;2.10;99.90
13606;DHT22;6874;52.084;5.090;2024-01-15T11:44:53;2.10;99.90
13606;DHT22;6874;52.084;5.090;2024-01-15T11:47:43;2.20;99.90
13606;DHT22;6874;52.084;5.090;2024-01-15T11:50:12;2.20;99.90
13606;DHT22;6874;52.084;5.090;2024-01-15T11:52:38;2.20;99.90
13606;DHT22;6874;52.084;5.090;2024-01-15T11:55:34;2.20;99.90
13606;DHT22;6874;52.084;5.090;2024-01-15T11:58:09;2.20;99.90
13606;DHT22;6874;52.084;5.090;2024-01-15T12:00:42;2.20;99.90
13606;DHT22;6874;52.084;5.090;2024-01-15T12:03:09;2.20;99.90
13606;DHT22;6874;52.084;5.090;2024-01-15T12:05:37;2.10;99.90
13606;DHT22;6874;52.084;5.090;2024-01-15T12:08:03;2.20;99.90
13606;DHT22;6874;52.084;5.090;2024-01-15T12:10:35;2.10;99.90
13606;DHT22;6874;52.084;5.090;2024-01-15T12:13:12;2.10;99.90
13606;DHT22;6874;52.084;5.090;2024-01-15T12:15:44;2.10;99.90
13606;DHT22;6874;52.084;5.090;2024-01-15T12:18:12;2.10;99.90
13606;DHT22;6874;52.084;5.090;2024-01-15T12:20:39;2.20;99.90
13606;DHT22;6874;52.084;5.090;2024-01-15T12:23:05;2.10;99.90
13606;DHT22;6874;52.084;5.090;2024-01-15T12:25:31;2.20;99.90
13606;DHT22;6874;52.084;5.090;2024-01-15T12:27:59;2.20;99.90
13606;DHT22;6874;52.084;5.090;2024-01-15T12:30:28;2.20;99.90
13606;DHT22;6874;52.084;5.090;2024-01-15T12:32:55;2.20;99.90
13606;DHT22;6874;52.084;5.090;2024-01-15T12:35:20;2.20;99.90
13606;DHT22;6874;52.084;5.090;2024-01-15T12:37:47;2.20;99.90
13606;DHT22;6874;52.084;5.090;2024-01-15T12:40:13;2.20;99.90
13606;DHT22;6874;52.084;5.090;2024-01-15T12:42:43;2.30;99.90
13606;DHT22;6874;52.084;5.090;2024-01-15T12:45:10;2.30;99.90
13606;DHT22;6874;52.084;5.090;2024-01-15T12:47:37;2.30;99.90
13606;DHT22;6874;52.084;5.090;2024-01-15T12:50:05;2.30;99.90
13606;DHT22;6874;52.084;5.090;2024-01-15T12:52:32;2.40;99.90
13606;DHT22;6874;52.084;5.090;2024-01-15T12:54:58;2.40;99.90
13606;DHT22;6874;52.084;5.090;2024-01-15T12:57:23;2.40;99.90
13606;DHT22;6874;52.084;5.090;2024-01-15T12:59:49;2.40;99.90
13606;DHT22;6874;52.084;5.090;2024-01-15T13:02:18;2.50;99.90
13606;DHT22;6874;52.084;5.090;2024-01-15T13:04:44;2.50;99.90
13606;DHT22;6874;52.084;5.090;2024-01-15T13:07:09;2.50;99.90
13606;DHT22;6874;52.084;5.090;2024-01-15T13:09:35;2.40;99.90
13606;DHT22;6874;52.084;5.090;2024-01-15T13:12:04;2.40;99.90
13606;DHT22;6874;52.084;5.090;2024-01-15T13:14:31;2.40;99.90
13606;DHT22;6874;52.084;5.090;2024-01-15T13:16:58;2.40;99.90
13606;DHT22;6874;52.084;5.090;2024-01-15T13:19:24;2.40;99.90
13606;DHT22;6874;52.084;5.090;2024-01-15T13:21:49;2.40;99.90
13606;DHT22;6874;52.084;5.090;2024-01-15T13:24:17;2.40;99.90
13606;DHT22;6874;52.084;5.090;2024-01-15T13:26:42;2.40;99.90
13606;DHT22;6874;52.084;5.090;2024-01-15T13:29:08;2.40;99.90
13606;DHT22;6874;52.084;5.090;2024-01-15T13:31:33;2.40;99.90
13606;DHT22;6874;52.084;5.090;2024-01-15T13:33:59;2.30;99.90
13606;DHT22;6874;52.084;5.090;2024-01-15T13:36:26;2.40;99.90
13606;DHT22;6874;52.084;5.090;2024-01-15T13:38:52;2.30;99.90
13606;DHT22;6874;52.084;5.090;2024-01-15T13:41:22;2.40;99.90
13606;DHT22;6874;52.084;5.090;2024-01-15T13:43:53;2.40;99.90
13606;DHT22;6874;52.084;5.090;2024-01-15T13:46:19;2.40;99.90
13606;DHT22;6874;52.084;5.090;2024-01-15T13:48:45;2.40;99.90
13606;DHT22;6874;52.084;5.090;2024-01-15T13:51:11;2.40;99.90
13606;DHT22;6874;52.084;5.090;2024-01-15T13:53:38;2.40;99.90
13606;DHT22;6874;52.084;5.090;2024-01-15T13:56:04;2.40;99.90
13606;DHT22;6874;52.084;5.090;2024-01-15T13:58:30;2.40;99.90
13606;DHT22;6874;52.084;5.090;2024-01-15T14:00:56;2.40;99.90
13606;DHT22;6874;52.084;5.090;2024-01-15T14:03:22;2.40;99.90
13606;DHT22;6874;52.084;5.090;2024-01-15T14:05:47;2.40;99.90
13606;DHT22;6874;52.084;5.090;2024-01-15T14:08:13;2.40;99.90
13606;DHT22;6874;52.084;5.090;2024-01-15T14:10:39;2.40;99.90
13606;DHT22;6874;52.084;5.090;2024-01-15T14:13:05;2.40;99.90
13606;DHT22;6874;52.084;5.090;2024-01-15T14:15:30;2.40;99.90
13606;DHT22;6874;52.084;5.090;2024-01-15T14:17:56;2.40;99.90
13606;DHT22;6874;52.084;5.090;2024-01-15T14:20:23;2.40;99.90
13606;DHT22;6874;52.084;5.090;2024-01-15T14:22:48;2.40;99.90
13606;DHT22;6874;52.084;5.090;2024-01-15T14:25:14;2.40;99.90
13606;DHT22;6874;52.084;5.090;2024-01-15T14:27:39;2.40;99.90
13606;DHT22;6874;52.084;5.090;2024-01-15T14:30:06;2.40;99.90
13606;DHT22;6874;52.084;5.090;2024-01-15T14:32:34;2.40;99.90
13606;DHT22;6874;52.084;5.090;2024-01-15T14:34:59;2.40;99.90
13606;DHT22;6874;52.084;5.090;2024-01-15T14:37:25;2.40;99.90
13606;DHT22;6874;52.084;5.090;2024-01-15T14:39:51;2.40;99.90
13606;DHT22;6874;52.084;5.090;2024-01-15T14:42:17;2.40;99.90
13606;DHT22;6874;52.084;5.090;2024-01-15T14:44:43;2.40;99.90
13606;DHT22;6874;52.084;5.090;2024-01-15T14:47:08;2.40;99.90
13606;DHT22;6874;52.084;5.090;2024-01-15T14:49:34;2.40;99.90
13606;DHT22;6874;52.084;5.090;2024-01-15T14:52:00;2.40;99.90
13606;DHT22;6874;52.084;5.090;2024-01-15T14:54:25;2.40;99.90
13606;DHT22;6874;52.084;5.090;2024-01-15T14:56:51;2.40;99.90
13606;DHT22;6874;52.084;5.090;2024-01-15T14:59:17;2.40;99.90
13606;DHT22;6874;52.084;5.090;2024-01-15T15:01:43;2.40;99.90
13606;DHT22;6874;52.084;5.090;2024-01-15T15:04:09;2.40;99.90
13606;DHT22;6874;52.084;5.090;2024-01-15T15:06:36;2.40;99.90
13606;DHT22;6874;52.084;5.090;2024-01-15T15:09:01;2.40;99.90
13606;DHT22;6874;52.084;5.090;2024-01-15T15:11:27;2.30;99.90
13606;DHT22;6874;52.084;5.090;2024-01-15T15:13:53;2.40;99.90
13606;DHT22;6874;52.084;5.090;2024-01-15T15:16:19;2.30;99.90
13606;DHT22;6874;52.084;5.090;2024-01-15T15:18:44;2.30;99.90
13606;DHT22;6874;52.084;5.090;2024-01-15T15:21:11;2.30;99.90
13606;DHT22;6874;52.084;5.090;2024-01-15T15:23:37;2.30;99.90
13606;DHT22;6874;52.084;5.090;2024-01-15T15:26:04;2.30;99.90
13606;DHT22;6874;52.084;5.090;2024-01-15T15:28:30;2.30;99.90
13606;DHT22;6874;52.084;5.090;2024-01-15T15:30:56;2.30;99.90
13606;DHT22;6874;52.084;5.090;2024-01-15T15:33:22;2.30;99.90
13606;DHT22;6874;52.084;5.090;2024-01-15T15:35:49;2.30;99.90
13606;DHT22;6874;52.084;5.090;2024-01-15T15:38:17;2.30;99.90
13606;DHT22;6874;52.084;5.090;2024-01-15T15:40:42;2.20;99.90
13606;DHT22;6874;52.084;5.090;2024-01-15T15:43:08;2.20;99.90
13606;DHT22;6874;52.084;5.090;2024-01-15T15:45:34;2.20;99.90
13606;DHT22;6874;52.084;5.090;2024-01-15T15:47:59;2.20;99.90
13606;DHT22;6874;52.084;5.090;2024-01-15T15:50:25;2.20;99.90
13606;DHT22;6874;52.084;5.090;2024-01-15T15:52:51;2.20;99.90
13606;DHT22;6874;52.084;5.090;2024-01-15T15:55:16;2.20;99.90
13606;DHT22;6874;52.084;5.090;2024-01-15T15:57:42;2.20;99.90